Aeroporto :
LOGIN :

Iscrizione | Disclaimer

   EN    FR    IT 

 










Sommario :    VFR   VFR Marginale   IFR   IFR Intensivo   IFR Molto Intensivo
Visibilità : 
Base nubi : 
>= 8 km
>= 3000ft
5 / 8 km
1000 / 3000 ft
1500m / 5 km
500 / 1000 ft
800 / 1500m
200 / 500 ft
< 800m
< 200 ft
Simboli :   Temporali  Nebbia  Neve Forte  Precipitazioni Forti  Vento > 20 kt
SIGMETs :   Varie  Temporali  Ghiacco  Turbolenza  Onda orograficha  Ceneri Vulcaniche







- Altitudine del aeroporto : 174 ft
- Codice IATA : RYG


ENRY - Moss , Rygge

ULTIMO METAR :
  • 202120Z 24003KT 160V330 CAVOK 08/M02 Q1021

METARs OBSOLETI :
  • 202050Z 28007KT CAVOK 08/M02 Q1021
  • 202020Z 23006KT 190V250 CAVOK 08/M02 Q1021
  • 201950Z 20008KT 170V250 CAVOK 07/M00 Q1021
  • 201920Z 21006KT 170V230 CAVOK 07/M00 Q1021
  • 201850Z 16005KT CAVOK 07/M01 Q1021

TAF TAF ENRY
Valido dal 20 a 18 ore il 21 a 18 ore UTC


2018/2118 26008KT CAVOK
BECMG 2023/2102 20015KT
TEMPO 2102/2108 22015G28KT
PROB40 2102/2108 3000 -DZ BR BKN003
BECMG 2110/2112 26008KT
BECMG 2115/2117 32012KT
Nessun NOTAM noto per questo aeroporto.
3 SIGMETs conosciuti per la FIR Norway (ENOR) :
 
Turbolenza severa
ENSV SIGMET B01 VALID 201950/202350 ENVV
ENOR NORWAY FIR SEV TURB FCST WI N6300 E00000 - N6300 E00400 - N6200 E00500 - N6200 E00000 - N6300 E00000 FL340/390 STNR NC=
Turbolenza severa
ENBD SIGMET D01 VALID 202000/210000 ENVN
ENOR NORWAY FIR SEV TURB FCST WI N6500 E00605 - N6600 E00720 - N6600 E01430 - N6500 E01415 - N6500 E00605 FL340/390 STNR NC=
Turbolenza severa
ENBD SIGMET C01 VALID 201945/202345 ENVV
ENOR NORWAY FIR SEV TURB FCST WI N6200 E00500 - N6300 E00400 - N6500 E00605 - N6500 E01415 - N6200 E01215 - N6200 E00500 FL340/390 STNR NC=



MetMap, La meteo Aeronautica in un colpo d'occhio ! - Copyright ORBIFLY Dicembre 2007 - Disclaimer

ORBIFLY MET'MAP TEAM :

Programmazione e sviluppo : Alexandra Zaïnal
Concezione e sviluppo : Baudouin d'Aumeries
Co-Programmazione e sviluppo : Marc-Olivier Méhu
Supporto tecnico e logistico : Manuel Goepfert
Aiuto per la traduzione : Arnaldo La Scala

Contatto : metmap@orbifly.com




FONTI E CREDITI :

   NOAA